Main page


Airports :

Gloucester, England

Gloucestershire Airport

latitude: 51-54N, longitude: 002-10W, elevation: 29 m

Current weather observation

The report was made 9 hours and 39 minutes ago, at 17:50 UTC
Wind 9 kt from the Northeast
Temperature 10°C
Humidity 76%
Pressure 1010 hPa
Visibility 10 km or more
Few clouds at a height of 2400 ft

METAR: EGBJ 231750Z 05009KT 9999 FEW024 10/06 Q1010

Time: 04:29 (03:29 UTC)


The report was made 13 hours and 31 minutes ago, at 13:58 UTC
Forecast valid from 23 at 15 UTC to 23 at 19 UTC
Wind 11 kt from the East/Northeast
Visibility 10 km or more
Scattered clouds at a height of 3000 ft

TAF: EGBJ 231358Z 2315/2319 06011KT 9999 SCT030

Weather observations and forecasts of more than 4000 airports (METAR and TAF reports).

The available stations are represented by yellow and red dots on the map.

Hover mouse over dot to see the name of the station.

Then click to see weather observations and forecasts.

To change the map : click on the green buttons with a black cross to zoom in, on the green button with a dash to zoom out, or on the green arrows for adjacent maps.